Terminal Aerodrome Forecast
Issued by NWS Charleston, SC

Home | Current Version | Previous Version | Text Only | Print | Product List | Glossary On
Versions: 1 2 3 4 5 6 7 8 9 10 11 12
252
FTUS42 KCHS 162320
TAFSAV
TAF
KSAV 162320Z 1700/1724 VRB02KT P6SM BKN250
     FM171400 29008KT P6SM SCT015 OVC060
     FM172000 29012G17KT P6SM FEW035=

USA.gov is the U.S. government's official web portal to all federal, state and local government web resources and services.